Time;durP1;ratioP1;P1;durP2;ratioP2;P2;SDS_P1;SDS_P2;PMS_P1;PMS_P2;Temp;Humidity;BMP_temperature;BMP_pressure;BME280_temperature;BME280_humidity;BME280_pressure;Samples;Min_cycle;Max_cycle;Signal;HPM_P1;HPM_P2
2020/12/19 00:00:13;;;;;;;15.20;9.20;;;7.70;99.90;;;;;;5122466;27;20073;-65
2020/12/19 00:02:38;;;;;;;15.98;8.95;;;7.70;99.90;;;;;;5109733;28;20080;-64
2020/12/19 00:05:05;;;;;;;13.93;9.85;;;7.70;99.90;;;;;;5121335;27;20019;-64
2020/12/19 00:07:30;;;;;;;14.93;9.40;;;7.70;99.90;;;;;;5112529;28;20031;-65
2020/12/19 00:09:56;;;;;;;14.32;8.88;;;7.60;99.90;;;;;;5114289;27;20033;-66
2020/12/19 00:12:22;;;;;;;16.70;9.93;;;7.70;99.90;;;;;;5120667;27;20032;-65
2020/12/19 00:14:49;;;;;;;19.10;10.35;;;7.60;99.90;;;;;;5124401;27;20549;-65
2020/12/19 00:17:15;;;;;;;15.07;9.13;;;7.60;99.90;;;;;;5125361;27;20039;-65
2020/12/19 00:19:40;;;;;;;13.57;8.70;;;7.60;99.90;;;;;;5112857;27;20022;-65
2020/12/19 00:22:06;;;;;;;15.68;9.38;;;7.50;99.90;;;;;;5113666;27;20031;-65
2020/12/19 00:24:32;;;;;;;14.95;9.60;;;7.60;99.90;;;;;;5110358;28;20015;-64
2020/12/19 00:26:58;;;;;;;16.00;9.75;;;7.50;99.90;;;;;;5123239;27;20113;-64
2020/12/19 00:29:23;;;;;;;16.38;9.73;;;7.60;99.90;;;;;;5114059;27;20545;-64
2020/12/19 00:31:49;;;;;;;14.70;10.10;;;7.50;99.90;;;;;;5112181;27;20568;-64
2020/12/19 00:34:16;;;;;;;14.75;9.52;;;7.50;99.90;;;;;;5124220;27;20077;-64
2020/12/19 00:36:42;;;;;;;20.33;10.15;;;7.50;99.90;;;;;;5111855;27;20032;-65
2020/12/19 00:39:07;;;;;;;20.63;9.90;;;7.50;99.90;;;;;;5112607;27;20038;-64
2020/12/19 00:41:33;;;;;;;19.65;10.68;;;7.50;99.90;;;;;;5108266;28;20132;-65
2020/12/19 00:43:59;;;;;;;16.80;10.80;;;7.40;99.90;;;;;;5119478;27;20511;-65
2020/12/19 00:46:25;;;;;;;16.92;10.73;;;7.40;99.90;;;;;;5114743;27;20030;-65
2020/12/19 00:48:50;;;;;;;18.00;11.30;;;7.40;99.90;;;;;;5121582;27;20024;-63
2020/12/19 00:51:21;;;;;;;20.25;10.68;;;7.40;99.90;;;;;;5123488;27;20228;-64
2020/12/19 00:53:47;;;;;;;16.83;10.48;;;7.40;99.90;;;;;;5110717;28;20020;-66
2020/12/19 00:56:23;;;;;;;21.52;11.73;;;7.40;99.90;;;;;;5126811;28;20027;-64
2020/12/19 00:58:50;;;;;;;19.30;11.38;;;7.30;99.90;;;;;;5119568;28;20032;-64
2020/12/19 01:01:18;;;;;;;18.23;10.57;;;7.30;99.90;;;;;;5094239;28;20454;-64
2020/12/19 01:03:44;;;;;;;20.42;11.23;;;7.40;99.90;;;;;;5122817;27;20019;-65
2020/12/19 01:06:14;;;;;;;17.13;11.20;;;7.40;99.90;;;;;;5129345;27;20029;-64
2020/12/19 01:08:39;;;;;;;21.70;11.00;;;7.40;99.90;;;;;;5115477;27;20031;-65
2020/12/19 01:11:05;;;;;;;24.60;10.82;;;7.40;99.90;;;;;;5127471;27;20035;-64
2020/12/19 01:13:30;;;;;;;20.08;11.82;;;7.30;99.90;;;;;;5099254;28;20072;-65
2020/12/19 01:15:56;;;;;;;18.88;12.23;;;7.30;99.90;;;;;;5115332;28;20032;-64
2020/12/19 01:18:21;;;;;;;20.85;11.80;;;7.30;99.90;;;;;;5114042;27;20084;-64
2020/12/19 01:20:47;;;;;;;18.20;10.40;;;7.30;99.90;;;;;;5114630;28;20160;-64
2020/12/19 01:23:13;;;;;;;22.52;11.43;;;7.30;99.90;;;;;;5096540;28;20277;-63
2020/12/19 01:25:38;;;;;;;20.63;11.88;;;7.30;99.90;;;;;;5114797;28;20022;-63
2020/12/19 01:28:04;;;;;;;24.80;11.80;;;7.30;99.90;;;;;;5109750;28;20128;-64
2020/12/19 01:30:29;;;;;;;22.10;11.80;;;7.30;99.90;;;;;;5108877;28;20027;-64
2020/12/19 01:32:55;;;;;;;24.20;11.85;;;7.20;99.90;;;;;;5113854;28;20097;-63
2020/12/19 01:35:21;;;;;;;20.67;12.23;;;7.20;99.90;;;;;;5114434;28;20088;-63
2020/12/19 01:37:46;;;;;;;18.58;11.38;;;7.10;99.90;;;;;;5107644;27;20024;-63
2020/12/19 01:40:12;;;;;;;21.52;12.57;;;7.10;99.90;;;;;;5112773;27;20122;-63
2020/12/19 01:42:37;;;;;;;23.58;12.73;;;7.20;99.90;;;;;;5113647;28;20046;-64
2020/12/19 01:45:04;;;;;;;22.75;11.32;;;7.10;99.90;;;;;;5114122;28;20385;-63
2020/12/19 01:47:33;;;;;;;20.83;12.65;;;7.10;99.90;;;;;;5115507;27;20115;-63
2020/12/19 01:49:59;;;;;;;21.15;13.13;;;7.10;99.90;;;;;;5112041;27;20027;-63
2020/12/19 01:52:27;;;;;;;26.50;13.80;;;7.10;99.90;;;;;;5103539;27;20112;-64
2020/12/19 01:54:53;;;;;;;19.15;12.35;;;7.10;99.90;;;;;;5129079;27;20026;-64
2020/12/19 01:57:20;;;;;;;20.73;11.90;;;7.10;99.90;;;;;;5121455;27;20031;-64
2020/12/19 01:59:46;;;;;;;24.15;13.73;;;7.10;99.90;;;;;;5125831;27;20027;-64
2020/12/19 02:02:13;;;;;;;20.05;11.43;;;7.00;99.90;;;;;;5100992;27;20461;-63
2020/12/19 02:04:38;;;;;;;20.70;11.40;;;7.00;99.90;;;;;;5127670;27;20502;-63
2020/12/19 02:07:05;;;;;;;20.20;11.45;;;7.00;99.90;;;;;;5119322;27;20565;-63
2020/12/19 02:09:36;;;;;;;25.95;12.77;;;7.00;99.90;;;;;;5127589;27;20030;-63
2020/12/19 02:12:03;;;;;;;18.38;11.85;;;7.00;99.90;;;;;;5126361;27;20099;-64
2020/12/19 02:14:29;;;;;;;21.98;12.05;;;6.90;99.90;;;;;;5130406;27;20015;-62
2020/12/19 02:16:59;;;;;;;22.25;11.70;;;7.00;99.90;;;;;;5125564;27;20016;-65
2020/12/19 02:19:26;;;;;;;20.95;12.23;;;6.90;99.90;;;;;;5126649;27;20057;-65
2020/12/19 02:21:52;;;;;;;21.40;11.57;;;7.00;99.90;;;;;;5124623;27;20107;-63
2020/12/19 02:24:18;;;;;;;22.45;12.65;;;7.00;99.90;;;;;;5110032;27;20059;-64
2020/12/19 02:26:52;;;;;;;21.73;11.98;;;7.00;99.90;;;;;;5117562;27;20066;-63
2020/12/19 02:29:18;;;;;;;23.48;12.40;;;7.00;99.90;;;;;;5079601;28;20398;-63
2020/12/19 02:31:44;;;;;;;20.48;11.82;;;7.00;99.90;;;;;;5105576;28;20031;-64
2020/12/19 02:34:10;;;;;;;19.30;11.70;;;6.90;99.90;;;;;;5112815;28;20099;-64
2020/12/19 02:36:37;;;;;;;21.58;12.32;;;6.90;99.90;;;;;;5113467;28;20111;-64
2020/12/19 02:39:03;;;;;;;20.48;12.80;;;7.00;99.90;;;;;;5112570;28;20093;-65
2020/12/19 02:41:29;;;;;;;20.33;11.90;;;6.90;99.90;;;;;;5112652;28;20024;-63
2020/12/19 02:43:56;;;;;;;18.67;11.50;;;6.90;99.90;;;;;;5113721;28;20075;-65
2020/12/19 02:46:22;;;;;;;24.10;12.50;;;6.90;99.90;;;;;;5095147;28;20452;-64
2020/12/19 02:48:48;;;;;;;22.00;11.93;;;6.90;99.90;;;;;;5092054;28;20034;-64
2020/12/19 02:51:14;;;;;;;21.23;11.00;;;6.90;99.90;;;;;;5106793;28;20570;-64
2020/12/19 02:53:39;;;;;;;22.40;12.45;;;6.90;99.90;;;;;;5126619;27;20027;-64
2020/12/19 02:56:05;;;;;;;23.30;12.60;;;6.90;99.90;;;;;;5112784;27;20027;-63
2020/12/19 02:58:31;;;;;;;17.65;10.93;;;6.90;99.90;;;;;;5130824;27;20038;-65
2020/12/19 03:00:57;;;;;;;22.45;11.93;;;6.90;99.90;;;;;;5110139;27;20035;-63
2020/12/19 03:03:22;;;;;;;23.55;12.40;;;6.90;99.90;;;;;;5118073;27;20300;-64
2020/12/19 03:05:48;;;;;;;18.77;12.13;;;6.90;99.90;;;;;;5122423;27;20019;-63
2020/12/19 03:08:13;;;;;;;19.02;11.85;;;6.90;99.90;;;;;;5099952;27;20011;-63
2020/12/19 03:10:39;;;;;;;22.15;11.68;;;6.90;99.90;;;;;;5119452;27;20510;-63
2020/12/19 03:13:04;;;;;;;19.20;11.20;;;6.90;99.90;;;;;;5106407;28;20023;-62
2020/12/19 03:15:30;;;;;;;18.83;11.75;;;6.90;99.90;;;;;;5109707;28;20023;-62
2020/12/19 03:17:55;;;;;;;18.95;11.38;;;6.90;99.90;;;;;;5113123;28;20110;-63
2020/12/19 03:20:21;;;;;;;19.45;11.35;;;6.90;99.90;;;;;;5112978;28;20111;-63
2020/12/19 03:22:46;;;;;;;20.63;11.00;;;7.00;99.90;;;;;;5115295;27;20369;-63
2020/12/19 03:25:12;;;;;;;23.15;11.88;;;6.90;99.90;;;;;;5122078;27;20457;-63
2020/12/19 03:27:37;;;;;;;17.83;11.10;;;6.90;99.90;;;;;;5112766;28;20103;-64
2020/12/19 03:30:05;;;;;;;18.25;11.27;;;7.00;99.90;;;;;;5094270;28;20027;-64
2020/12/19 03:32:30;;;;;;;17.23;11.15;;;7.00;99.90;;;;;;5099015;28;20032;-62
2020/12/19 03:34:56;;;;;;;16.48;10.00;;;7.00;99.90;;;;;;5106984;28;20521;-64
2020/12/19 03:37:21;;;;;;;19.30;10.43;;;7.00;99.90;;;;;;5111363;28;20521;-64
2020/12/19 03:39:47;;;;;;;21.20;11.48;;;7.10;99.90;;;;;;5130893;27;20031;-63
2020/12/19 03:42:13;;;;;;;23.27;11.68;;;7.10;99.90;;;;;;5123613;27;20055;-63
2020/12/19 03:44:38;;;;;;;21.65;11.02;;;7.10;99.90;;;;;;5124612;27;20016;-64
2020/12/19 03:47:04;;;;;;;19.63;10.18;;;7.10;99.90;;;;;;5112124;28;20102;-63
2020/12/19 03:49:29;;;;;;;17.75;10.45;;;7.10;99.90;;;;;;5111619;28;20031;-63
2020/12/19 03:51:55;;;;;;;16.90;9.80;;;7.10;99.90;;;;;;5113292;27;20034;-63
2020/12/19 03:54:21;;;;;;;16.55;10.02;;;7.10;99.90;;;;;;5113758;27;20046;-64
2020/12/19 03:56:46;;;;;;;16.17;9.48;;;7.20;99.90;;;;;;5113432;28;20549;-63
2020/12/19 03:59:12;;;;;;;17.05;10.27;;;7.10;99.90;;;;;;5115816;27;20028;-64
2020/12/19 04:01:37;;;;;;;16.48;9.73;;;7.20;99.90;;;;;;5113144;28;20484;-64
2020/12/19 04:04:04;;;;;;;19.30;9.15;;;7.20;99.90;;;;;;5118586;27;20019;-64
2020/12/19 04:06:29;;;;;;;18.75;10.05;;;7.20;99.90;;;;;;5112382;28;20384;-64
2020/12/19 04:08:55;;;;;;;18.25;9.63;;;7.30;99.90;;;;;;5111011;27;20472;-64
2020/12/19 04:11:20;;;;;;;16.27;8.93;;;7.30;99.90;;;;;;5112353;27;20025;-64
2020/12/19 04:13:46;;;;;;;16.40;9.35;;;7.40;99.90;;;;;;5116187;27;20038;-63
2020/12/19 04:16:11;;;;;;;15.07;9.05;;;7.40;99.90;;;;;;5101348;28;20098;-63
2020/12/19 04:18:37;;;;;;;17.67;9.60;;;7.40;99.90;;;;;;5111428;28;20036;-63
2020/12/19 04:21:06;;;;;;;16.33;8.90;;;7.40;99.90;;;;;;5092943;28;20441;-64
2020/12/19 04:23:31;;;;;;;17.58;9.65;;;7.40;99.90;;;;;;5111993;28;20039;-65
2020/12/19 04:25:57;;;;;;;14.27;8.35;;;7.40;99.90;;;;;;5111423;28;20396;-65
2020/12/19 04:28:22;;;;;;;17.35;9.25;;;7.40;99.90;;;;;;5111089;28;20048;-64
2020/12/19 04:30:48;;;;;;;16.13;9.07;;;7.40;99.90;;;;;;5110067;28;20012;-63
2020/12/19 04:33:13;;;;;;;13.85;8.43;;;7.40;99.90;;;;;;5101404;28;20024;-64
2020/12/19 04:35:39;;;;;;;15.20;8.85;;;7.40;99.90;;;;;;5110486;28;20103;-64
2020/12/19 04:38:04;;;;;;;17.00;9.23;;;7.40;99.90;;;;;;5110718;28;20039;-63
2020/12/19 04:40:30;;;;;;;14.45;9.07;;;7.40;99.90;;;;;;5109831;28;20032;-63
2020/12/19 04:42:58;;;;;;;15.85;8.23;;;7.40;99.90;;;;;;5097100;28;20047;-63
2020/12/19 04:45:23;;;;;;;13.30;7.82;;;7.40;99.90;;;;;;5111612;28;20031;-63
2020/12/19 04:47:49;;;;;;;13.38;7.78;;;7.50;99.90;;;;;;5109864;28;20023;-63
2020/12/19 04:50:16;;;;;;;11.13;6.68;;;7.50;99.90;;;;;;5111161;28;20024;-64
2020/12/19 04:52:42;;;;;;;15.13;7.90;;;7.60;99.90;;;;;;5112254;27;20028;-64
2020/12/19 04:55:08;;;;;;;12.88;6.60;;;7.60;99.90;;;;;;5113012;28;20028;-64
2020/12/19 04:57:34;;;;;;;13.10;7.65;;;7.70;99.90;;;;;;5113296;28;20032;-64
2020/12/19 05:00:00;;;;;;;12.82;7.85;;;7.70;99.90;;;;;;5112966;28;20060;-63
2020/12/19 05:02:25;;;;;;;14.38;7.45;;;7.70;99.90;;;;;;5109653;28;20489;-63
2020/12/19 05:04:51;;;;;;;13.57;7.00;;;7.70;99.90;;;;;;5109568;28;20087;-63
2020/12/19 05:07:16;;;;;;;15.95;7.78;;;7.70;99.90;;;;;;5110447;28;20024;-63
2020/12/19 05:09:43;;;;;;;16.33;8.18;;;7.80;99.90;;;;;;5112632;28;20095;-65
2020/12/19 05:12:12;;;;;;;12.82;6.82;;;7.70;99.90;;;;;;5100824;28;20073;-63
2020/12/19 05:14:37;;;;;;;12.52;7.45;;;7.70;99.90;;;;;;5089840;28;20020;-64
2020/12/19 05:17:04;;;;;;;13.18;8.57;;;7.80;99.90;;;;;;5108247;28;20545;-64
2020/12/19 05:19:30;;;;;;;12.80;7.85;;;7.80;99.90;;;;;;5122633;28;20035;-63
2020/12/19 05:21:56;;;;;;;11.80;7.40;;;7.80;99.90;;;;;;5110146;28;20039;-64
2020/12/19 05:24:31;;;;;;;17.90;8.73;;;7.70;99.90;;;;;;5109757;28;20024;-63
2020/12/19 05:26:58;;;;;;;11.63;7.35;;;7.80;99.90;;;;;;5089791;28;20043;-63
2020/12/19 05:29:25;;;;;;;14.45;8.80;;;7.70;99.90;;;;;;5123425;28;20103;-64
2020/12/19 05:31:58;;;;;;;12.43;7.93;;;7.80;99.90;;;;;;5101440;28;20493;-66
2020/12/19 05:34:25;;;;;;;16.25;8.23;;;7.80;99.90;;;;;;5108441;28;20076;-62
2020/12/19 05:36:52;;;;;;;18.90;8.73;;;7.80;99.90;;;;;;5119963;28;20118;-64
2020/12/19 05:39:18;;;;;;;13.30;8.18;;;7.90;99.90;;;;;;5110462;28;20032;-65
2020/12/19 05:41:45;;;;;;;13.90;8.70;;;7.90;99.90;;;;;;5137488;22;20119;-61
2020/12/19 05:44:11;;;;;;;15.88;9.50;;;7.80;99.90;;;;;;5121647;28;20039;-60
2020/12/19 05:46:39;;;;;;;13.75;8.57;;;7.90;99.90;;;;;;5112000;28;20683;-61
2020/12/19 05:49:07;;;;;;;14.55;9.25;;;7.90;99.90;;;;;;5122092;27;20019;-60
2020/12/19 05:51:34;;;;;;;12.70;8.43;;;7.90;99.90;;;;;;5115100;27;20051;-60
2020/12/19 05:54:05;;;;;;;13.73;9.05;;;7.90;99.90;;;;;;5132391;27;20020;-61
2020/12/19 05:56:38;;;;;;;19.20;8.85;;;7.90;99.90;;;;;;5108056;27;20026;-60
2020/12/19 05:59:08;;;;;;;15.48;8.80;;;7.90;99.90;;;;;;5117590;27;20016;-60
2020/12/19 06:01:37;;;;;;;15.77;8.88;;;7.90;99.90;;;;;;5132599;27;20083;-60
2020/12/19 06:04:06;;;;;;;16.17;10.15;;;7.90;99.90;;;;;;5138709;27;20007;-62
2020/12/19 06:06:32;;;;;;;18.05;9.52;;;7.80;99.90;;;;;;5128613;27;20114;-62
2020/12/19 06:08:59;;;;;;;18.17;9.93;;;7.90;99.90;;;;;;5133877;27;20418;-60
2020/12/19 06:11:27;;;;;;;14.32;9.15;;;7.90;99.90;;;;;;5118786;27;20027;-60
2020/12/19 06:13:57;;;;;;;15.15;8.98;;;7.90;99.90;;;;;;5121245;27;20079;-60
2020/12/19 06:16:23;;;;;;;15.65;9.32;;;8.00;99.90;;;;;;5123330;27;20448;-60
2020/12/19 06:18:52;;;;;;;15.02;9.80;;;8.00;99.90;;;;;;5115504;27;20039;-60
2020/12/19 06:21:18;;;;;;;16.23;10.45;;;8.00;99.90;;;;;;5113765;27;20046;-59
2020/12/19 06:23:44;;;;;;;22.83;10.57;;;8.10;99.90;;;;;;5099683;28;20042;-60
2020/12/19 06:26:11;;;;;;;20.83;10.10;;;8.10;99.90;;;;;;5112760;28;20130;-60
2020/12/19 06:28:40;;;;;;;20.75;11.70;;;8.20;99.90;;;;;;5116028;27;20027;-61
2020/12/19 06:31:20;;;;;;;16.20;10.48;;;8.20;99.90;;;;;;5116077;27;20023;-60
2020/12/19 06:33:51;;;;;;;15.82;9.75;;;8.30;99.90;;;;;;5119110;27;20080;-60
2020/12/19 06:36:19;;;;;;;18.70;10.32;;;8.30;99.90;;;;;;5119076;27;20039;-60
2020/12/19 06:38:53;;;;;;;17.27;9.82;;;8.30;99.90;;;;;;5115368;27;20027;-61
2020/12/19 06:41:37;;;;;;;23.38;11.48;;;8.30;99.90;;;;;;5117361;27;20519;-61
2020/12/19 06:44:18;;;;;;;18.77;11.40;;;8.40;99.90;;;;;;5091222;28;20040;-62
2020/12/19 06:46:44;;;;;;;18.73;11.40;;;8.40;99.90;;;;;;5114370;27;20011;-63
2020/12/19 06:49:31;;;;;;;18.50;10.80;;;8.40;99.90;;;;;;5113179;28;20089;-62
2020/12/19 06:52:13;;;;;;;21.45;11.38;;;8.40;99.90;;;;;;5111794;28;20100;-60
2020/12/19 06:54:43;;;;;;;18.10;11.30;;;8.40;99.90;;;;;;5091874;28;20035;-61
2020/12/19 06:57:25;;;;;;;17.50;11.40;;;8.40;99.90;;;;;;5109772;27;20035;-61
2020/12/19 06:59:51;;;;;;;19.13;11.23;;;8.30;99.90;;;;;;5111685;28;20032;-61
2020/12/19 07:02:22;;;;;;;18.58;11.20;;;8.40;99.90;;;;;;5114897;27;20027;-60
2020/12/19 07:04:49;;;;;;;23.30;11.93;;;8.40;99.90;;;;;;5114907;27;20088;-60
2020/12/19 07:07:26;;;;;;;22.77;11.80;;;8.40;99.90;;;;;;5116299;27;20015;-62
2020/12/19 07:10:00;;;;;;;20.73;11.85;;;8.30;99.90;;;;;;5090136;27;20031;-61
2020/12/19 07:12:34;;;;;;;20.33;11.80;;;8.30;99.90;;;;;;5094171;28;20545;-60
2020/12/19 07:15:00;;;;;;;20.63;12.13;;;8.30;99.90;;;;;;5115787;27;20023;-62
2020/12/19 07:17:26;;;;;;;22.73;12.80;;;8.30;99.90;;;;;;5120895;27;20023;-59
2020/12/19 07:19:59;;;;;;;23.95;11.90;;;8.30;99.90;;;;;;5122999;27;20096;-58
2020/12/19 07:22:26;;;;;;;19.00;11.35;;;8.30;99.90;;;;;;5101362;28;20020;-61
2020/12/19 07:24:54;;;;;;;21.77;12.02;;;8.30;99.90;;;;;;5116938;27;20081;-62
2020/12/19 07:27:21;;;;;;;27.92;13.00;;;8.30;99.90;;;;;;5114867;27;20032;-62
2020/12/19 07:29:47;;;;;;;24.67;11.48;;;8.30;99.90;;;;;;5106281;27;20407;-60
2020/12/19 07:32:12;;;;;;;21.45;12.70;;;8.40;99.90;;;;;;5113376;27;20098;-61
2020/12/19 07:34:38;;;;;;;20.45;11.90;;;8.40;99.90;;;;;;5115441;27;20028;-60
2020/12/19 07:37:04;;;;;;;18.65;11.68;;;8.40;99.90;;;;;;5113497;27;20028;-60
2020/12/19 07:39:29;;;;;;;21.17;12.68;;;8.50;99.90;;;;;;5111749;28;20034;-59
2020/12/19 07:42:06;;;;;;;19.42;11.73;;;8.50;99.90;;;;;;5111322;28;20479;-60
2020/12/19 07:44:33;;;;;;;21.95;11.85;;;8.50;99.90;;;;;;5112409;27;20047;-60
2020/12/19 07:47:01;;;;;;;21.27;10.90;;;8.50;99.90;;;;;;5105071;27;20150;-61
2020/12/19 07:49:36;;;;;;;20.17;11.82;;;8.50;99.90;;;;;;5114445;27;20024;-60
2020/12/19 07:52:17;;;;;;;19.75;11.90;;;8.50;99.90;;;;;;5112797;28;20020;-62
2020/12/19 07:55:03;;;;;;;22.83;12.50;;;8.50;99.90;;;;;;5096928;28;20024;-61
2020/12/19 07:57:33;;;;;;;25.60;12.00;;;8.60;99.90;;;;;;5104390;28;20062;-60
2020/12/19 08:00:00;;;;;;;21.42;12.35;;;8.60;99.90;;;;;;5110472;27;20028;-60
2020/12/19 08:02:26;;;;;;;21.55;11.73;;;8.70;99.90;;;;;;5118783;27;20076;-61
2020/12/19 08:04:53;;;;;;;18.67;10.93;;;8.70;99.90;;;;;;5112543;28;20317;-60
2020/12/19 08:07:22;;;;;;;20.55;12.02;;;8.80;99.90;;;;;;5111071;28;20115;-62
2020/12/19 08:09:48;;;;;;;22.08;11.25;;;8.80;99.90;;;;;;5111275;28;20019;-62
2020/12/19 08:12:14;;;;;;;21.20;11.27;;;8.80;99.90;;;;;;5111643;28;20384;-60
2020/12/19 08:14:40;;;;;;;23.63;11.45;;;8.90;99.90;;;;;;5112398;27;20154;-60
2020/12/19 08:17:14;;;;;;;19.75;11.27;;;8.90;99.90;;;;;;5115707;27;20170;-60
2020/12/19 08:19:53;;;;;;;20.17;10.68;;;9.00;99.90;;;;;;5114792;27;20050;-60
2020/12/19 08:22:20;;;;;;;17.10;9.57;;;9.20;99.90;;;;;;5117581;27;20110;-60
2020/12/19 08:24:50;;;;;;;15.73;10.23;;;9.30;99.90;;;;;;5115134;27;20065;-60
2020/12/19 08:27:47;;;;;;;17.08;10.27;;;9.30;99.90;;;;;;5113054;27;20023;-60
2020/12/19 08:30:18;;;;;;;20.15;10.70;;;9.30;99.90;;;;;;5105179;28;20382;-60
2020/12/19 08:32:48;;;;;;;16.27;9.63;;;9.30;99.90;;;;;;5106172;28;20032;-61
2020/12/19 08:35:23;;;;;;;16.95;10.02;;;9.40;99.90;;;;;;5117457;27;20040;-61
2020/12/19 08:37:50;;;;;;;16.65;10.18;;;9.40;99.90;;;;;;5086033;28;20085;-62
2020/12/19 08:40:20;;;;;;;15.98;9.73;;;9.40;99.90;;;;;;5116526;27;20058;-61
2020/12/19 08:42:49;;;;;;;17.98;9.95;;;9.50;99.90;;;;;;5111691;27;20571;-61
2020/12/19 08:45:16;;;;;;;16.80;9.60;;;9.50;99.90;;;;;;5115525;28;20040;-61
2020/12/19 08:47:43;;;;;;;17.42;10.82;;;9.50;99.90;;;;;;5118876;27;20035;-60
2020/12/19 08:50:09;;;;;;;14.70;9.77;;;9.50;99.90;;;;;;5112304;28;20080;-60
2020/12/19 08:52:36;;;;;;;18.73;10.52;;;9.50;99.90;;;;;;5121224;27;20094;-60
2020/12/19 08:55:01;;;;;;;23.50;11.05;;;9.50;99.90;;;;;;5132152;27;20046;-59
2020/12/19 08:57:28;;;;;;;21.30;11.60;;;9.40;99.90;;;;;;5111128;27;20103;-61
2020/12/19 09:00:11;;;;;;;21.20;10.88;;;9.40;99.90;;;;;;5116354;28;20114;-60
2020/12/19 09:02:38;;;;;;;16.23;9.68;;;9.50;99.90;;;;;;5099615;28;20027;-61
2020/12/19 09:05:05;;;;;;;16.08;10.48;;;9.50;99.90;;;;;;5084017;28;20030;-60
2020/12/19 09:07:30;;;;;;;15.35;9.27;;;9.60;99.90;;;;;;5108453;28;20126;-61
2020/12/19 09:09:56;;;;;;;15.20;9.25;;;9.70;99.90;;;;;;5109791;28;20023;-61
2020/12/19 09:12:22;;;;;;;17.13;9.30;;;9.80;99.90;;;;;;5122860;28;20020;-61
2020/12/19 09:14:48;;;;;;;15.90;8.98;;;9.90;99.90;;;;;;5126999;28;20035;-61
2020/12/19 09:17:30;;;;;;;16.17;8.70;;;10.00;99.90;;;;;;5112987;28;20034;-62
2020/12/19 09:20:03;;;;;;;19.70;9.40;;;10.00;99.90;;;;;;5104035;28;20503;-63
2020/12/19 09:22:29;;;;;;;15.90;9.27;;;10.00;99.90;;;;;;5123388;27;20374;-60
2020/12/19 09:24:54;;;;;;;16.30;9.07;;;9.90;99.90;;;;;;5147338;27;20037;-61
2020/12/19 09:27:20;;;;;;;15.63;8.93;;;9.90;99.90;;;;;;5143001;27;20061;-61
2020/12/19 09:29:45;;;;;;;17.50;9.15;;;9.90;99.90;;;;;;5140211;27;20019;-61
2020/12/19 09:32:11;;;;;;;15.70;8.73;;;9.90;99.90;;;;;;5130650;27;20079;-61
2020/12/19 09:34:36;;;;;;;13.80;9.27;;;9.80;99.90;;;;;;5102451;27;20454;-61
2020/12/19 09:37:02;;;;;;;14.77;9.07;;;9.80;99.90;;;;;;5094984;28;20310;-61
2020/12/19 09:39:27;;;;;;;13.90;9.27;;;9.80;99.90;;;;;;5116502;27;20102;-61
2020/12/19 09:41:53;;;;;;;15.13;9.07;;;9.90;99.90;;;;;;5115817;27;20456;-60
2020/12/19 09:44:18;;;;;;;20.42;8.68;;;9.90;99.90;;;;;;5120557;27;20042;-60
2020/12/19 09:46:45;;;;;;;14.75;8.07;;;9.90;99.90;;;;;;5111513;28;20022;-60
2020/12/19 09:49:11;;;;;;;15.20;9.00;;;10.00;99.90;;;;;;5121726;27;20400;-61
2020/12/19 09:51:36;;;;;;;11.50;7.80;;;10.00;99.90;;;;;;5117370;27;20485;-61
2020/12/19 09:54:02;;;;;;;11.38;7.03;;;10.00;99.90;;;;;;5116193;27;20058;-61
2020/12/19 09:56:27;;;;;;;12.65;7.68;;;10.10;99.90;;;;;;5119243;27;20031;-61
2020/12/19 09:58:53;;;;;;;11.98;7.55;;;10.20;99.90;;;;;;5119672;27;20107;-60
2020/12/19 10:01:18;;;;;;;15.45;6.75;;;10.20;99.90;;;;;;5121957;27;20035;-61
2020/12/19 10:03:44;;;;;;;10.73;6.53;;;10.30;99.90;;;;;;5115522;27;20024;-61
2020/12/19 10:06:13;;;;;;;10.15;6.30;;;10.30;99.90;;;;;;5103587;27;20045;-61
2020/12/19 10:08:38;;;;;;;11.68;6.63;;;10.40;99.90;;;;;;5125760;27;20020;-60
2020/12/19 10:11:06;;;;;;;9.23;5.75;;;10.50;99.90;;;;;;5120287;27;20511;-61
2020/12/19 10:13:32;;;;;;;17.67;6.15;;;10.50;99.90;;;;;;5109005;27;20032;-61
2020/12/19 10:15:57;;;;;;;10.68;6.55;;;10.60;99.90;;;;;;5126163;27;20035;-62
2020/12/19 10:18:23;;;;;;;9.73;5.70;;;10.60;99.90;;;;;;5124276;27;20032;-64
2020/12/19 10:20:48;;;;;;;9.73;5.43;;;10.60;99.90;;;;;;5108617;28;20035;-62
2020/12/19 10:23:17;;;;;;;9.60;5.72;;;10.60;99.90;;;;;;5123038;27;20391;-61
2020/12/19 10:25:43;;;;;;;8.45;5.65;;;10.60;99.90;;;;;;5123545;27;20042;-60
2020/12/19 10:28:09;;;;;;;13.30;6.40;;;10.70;99.90;;;;;;5118857;27;20027;-63
2020/12/19 10:30:34;;;;;;;8.95;5.13;;;10.70;99.90;;;;;;5107834;27;20030;-62
2020/12/19 10:33:00;;;;;;;13.90;5.25;;;10.80;99.90;;;;;;5115309;27;20106;-61
2020/12/19 10:35:25;;;;;;;9.27;5.05;;;10.90;99.90;;;;;;5121759;27;20031;-61
2020/12/19 10:37:51;;;;;;;6.88;4.65;;;11.00;99.90;;;;;;5111864;28;20031;-62
2020/12/19 10:40:17;;;;;;;9.10;4.68;;;11.00;99.90;;;;;;5127527;27;20219;-61
2020/12/19 10:42:43;;;;;;;7.97;4.63;;;11.00;99.90;;;;;;5114312;27;20035;-60
2020/12/19 10:45:09;;;;;;;10.35;4.65;;;11.00;99.90;;;;;;5101892;28;20069;-62
2020/12/19 10:47:35;;;;;;;7.13;4.32;;;11.10;99.90;;;;;;5117309;27;20027;-61
2020/12/19 10:50:00;;;;;;;7.97;3.92;;;11.20;99.90;;;;;;5100973;27;20049;-61
2020/12/19 10:52:26;;;;;;;8.80;4.55;;;11.10;99.90;;;;;;5127603;27;20035;-63
2020/12/19 10:54:51;;;;;;;7.90;4.63;;;11.10;99.90;;;;;;5131053;27;20019;-61
2020/12/19 10:57:17;;;;;;;9.38;4.68;;;11.10;99.90;;;;;;5115520;27;20020;-61
2020/12/19 10:59:42;;;;;;;8.27;3.95;;;11.10;99.90;;;;;;5125576;27;20023;-61
2020/12/19 11:02:08;;;;;;;7.82;5.00;;;11.20;99.90;;;;;;5112217;28;20554;-61
2020/12/19 11:04:34;;;;;;;8.20;4.30;;;11.20;99.90;;;;;;5094999;27;20531;-60
2020/12/19 11:07:00;;;;;;;5.65;4.15;;;11.20;99.90;;;;;;5121916;27;20068;-61
2020/12/19 11:09:25;;;;;;;7.32;4.22;;;11.30;99.90;;;;;;5119426;27;20027;-60
2020/12/19 11:11:55;;;;;;;8.68;3.65;;;11.30;99.90;;;;;;5114136;27;20029;-61
2020/12/19 11:14:22;;;;;;;7.20;4.28;;;11.30;99.90;;;;;;5111641;28;20369;-61
2020/12/19 11:16:47;;;;;;;7.75;3.80;;;11.30;99.90;;;;;;5114655;27;20031;-62
2020/12/19 11:19:13;;;;;;;8.30;4.35;;;11.30;99.90;;;;;;5111544;27;20110;-62
2020/12/19 11:21:45;;;;;;;7.75;4.35;;;11.30;99.90;;;;;;5115389;27;20028;-63
2020/12/19 11:24:11;;;;;;;5.85;4.15;;;11.30;99.90;;;;;;5127564;27;20039;-62
2020/12/19 11:26:37;;;;;;;11.30;3.80;;;11.30;99.90;;;;;;5117401;27;20111;-61
2020/12/19 11:29:03;;;;;;;10.30;3.50;;;11.30;99.90;;;;;;5117697;27;20439;-61
2020/12/19 11:31:29;;;;;;;8.20;4.15;;;11.30;99.90;;;;;;5094559;27;20516;-61
2020/12/19 11:33:56;;;;;;;8.68;3.60;;;11.40;99.90;;;;;;5129441;27;20020;-61
2020/12/19 11:36:22;;;;;;;7.80;3.75;;;11.40;99.90;;;;;;5122344;27;20114;-61
2020/12/19 11:38:48;;;;;;;5.75;3.50;;;11.40;99.90;;;;;;5104680;27;20031;-62
2020/12/19 11:41:20;;;;;;;8.65;3.75;;;11.40;99.90;;;;;;5118243;27;20084;-61
2020/12/19 11:43:45;;;;;;;6.80;3.67;;;11.40;99.90;;;;;;5131611;22;20303;-67
2020/12/19 11:46:11;;;;;;;5.03;3.20;;;11.40;99.90;;;;;;5106853;28;20036;-63
2020/12/19 11:48:36;;;;;;;8.25;3.70;;;11.40;99.90;;;;;;5104611;28;20481;-63
2020/12/19 11:51:02;;;;;;;7.20;3.03;;;11.40;99.90;;;;;;5101382;28;20031;-65
2020/12/19 11:53:28;;;;;;;6.60;3.67;;;11.40;99.90;;;;;;5085452;28;20027;-63
2020/12/19 11:55:53;;;;;;;6.65;3.80;;;11.30;99.90;;;;;;5103624;28;20046;-65
2020/12/19 11:58:19;;;;;;;7.05;3.40;;;11.40;99.90;;;;;;5106630;28;20088;-64
2020/12/19 12:00:47;;;;;;;5.35;3.15;;;11.30;99.90;;;;;;5102136;28;20045;-64
2020/12/19 12:03:13;;;;;;;6.75;3.65;;;11.30;99.90;;;;;;5105353;28;20038;-66
2020/12/19 12:05:38;;;;;;;5.85;3.33;;;11.30;99.90;;;;;;5100836;28;20020;-65
2020/12/19 12:08:04;;;;;;;5.82;2.40;;;11.30;99.90;;;;;;5102323;28;20032;-64
2020/12/19 12:10:29;;;;;;;4.03;2.88;;;11.30;99.90;;;;;;5108246;28;20045;-65
2020/12/19 12:12:55;;;;;;;7.63;3.70;;;11.30;99.90;;;;;;5095393;28;20560;-64
2020/12/19 12:15:21;;;;;;;3.85;2.78;;;11.30;99.90;;;;;;5104721;28;20024;-64
2020/12/19 12:17:46;;;;;;;6.63;3.15;;;11.30;99.90;;;;;;5101351;28;20016;-65
2020/12/19 12:20:16;;;;;;;6.50;2.75;;;11.20;99.90;;;;;;5099942;28;20034;-64
2020/12/19 12:22:41;;;;;;;5.60;2.92;;;11.20;99.90;;;;;;5103599;28;20421;-64
2020/12/19 12:25:07;;;;;;;4.25;2.83;;;11.20;99.90;;;;;;5100532;28;20035;-65
2020/12/19 12:27:33;;;;;;;4.95;3.33;;;11.20;99.90;;;;;;5101641;28;20043;-64
2020/12/19 12:29:58;;;;;;;4.97;2.78;;;11.20;99.90;;;;;;5110172;28;20939;-66
2020/12/19 12:32:24;;;;;;;5.93;3.00;;;11.20;99.90;;;;;;5111214;28;20023;-65
2020/12/19 12:34:50;;;;;;;5.13;2.97;;;11.20;99.90;;;;;;5113248;28;20465;-65
2020/12/19 12:37:15;;;;;;;6.13;3.20;;;11.10;99.90;;;;;;5107725;28;20038;-66
2020/12/19 12:39:41;;;;;;;4.15;3.15;;;11.20;99.90;;;;;;5107464;28;20111;-65